This is the latest recevied weather packets stored in our database for station/object GBTWP-2. If no packets are shown the sender has not sent any weather packets the latest 10 day(s).
| Time | Temp. | Humidity | Pressure | Rain* | Wind** | Luminosity | Snow |
|---|---|---|---|---|---|---|---|
| 1787444820 | 17.78° C | 94% | 1013.8 hPa | 0 mm | - | 0 W/m² | - |
| 1787444520 | 17.78° C | 94% | 1013.6 hPa | 0 mm | - | 1 W/m² | - |
| 1787444219 | 17.78° C | 93% | 1013.9 hPa | 0 mm | - | 2 W/m² | - |
| 1787443919 | 17.78° C | 93% | 1013.7 hPa | 0 mm | - | 2 W/m² | - |
| 1787443620 | 17.78° C | 92% | 1013.3 hPa | 0 mm | - | 4 W/m² | - |
| 1787443320 | 17.78° C | 92% | 1013.2 hPa | 0 mm | - | 7 W/m² | - |
| 1787443020 | 18.33° C | 91% | 1013.4 hPa | 0 mm | - | 9 W/m² | - |
| 1787442720 | 18.33° C | 91% | 1013 hPa | 0 mm | - | 11 W/m² | - |
| 1787442420 | 18.33° C | 90% | 1012.9 hPa | 0 mm | - | 16 W/m² | - |
| 1787442120 | 18.89° C | 90% | 1012.6 hPa | 0 mm | - | 24 W/m² | - |
| 1787441817 | 18.89° C | 89% | 1012.8 hPa | 0 mm | - | 33 W/m² | - |
| 1787441519 | 18.33° C | 90% | 1012.8 hPa | 0 mm | - | 35 W/m² | - |
| 1787441220 | 18.89° C | 90% | 1012.9 hPa | 0 mm | - | 34 W/m² | - |
| 1787440919 | 18.89° C | 90% | 1013.1 hPa | 0 mm | - | 34 W/m² | - |
| 1787440620 | 18.33° C | 90% | 1013.2 hPa | 0 mm | - | 29 W/m² | - |
| 1787440319 | 18.33° C | 89% | 1013.2 hPa | 0 mm | - | 33 W/m² | - |
| 1787440022 | 18.33° C | 90% | 1013.2 hPa | 0 mm | - | 28 W/m² | - |
| 1787439718 | 18.89° C | 89% | 1013.3 hPa | 0 mm | - | 38 W/m² | - |
| 1787439420 | 18.89° C | 88% | 1013.5 hPa | 0 mm | - | 33 W/m² | - |
| 1787439119 | 18.89° C | 87% | 1013.3 hPa | 0 mm | - | 35 W/m² | - |
| 1787438820 | 19.44° C | 86% | 1013.2 hPa | 0 mm | - | 29 W/m² | - |
| 1787438519 | 19.44° C | 85% | 1013.2 hPa | 0 mm | - | 32 W/m² | - |
| 1787438221 | 20° C | 84% | 1013.1 hPa | 0 mm | - | 102 W/m² | - |
| 1787437920 | 19.44° C | 86% | 1013.1 hPa | 0 mm | - | 46 W/m² | - |
| 1787437620 | 19.44° C | 86% | 1013.1 hPa | 0 mm | - | 50 W/m² | - |
* Rain latest hour (hover to see other rain measurements)
** Current wind speed in m/s (hover to see current wind gust speed)